createdAt,value
2023-05-08T00:01:13.184Z,2.05
2023-05-08T00:04:20.805Z,1.90
2023-05-08T00:07:26.945Z,2.22
2023-05-08T00:10:32.346Z,1.90
2023-05-08T00:13:38.270Z,1.60
2023-05-08T00:16:43.529Z,1.50
2023-05-08T00:19:49.234Z,1.90
2023-05-08T00:22:54.948Z,2.28
2023-05-08T00:26:00.822Z,2.60
2023-05-08T00:29:06.900Z,3.15
2023-05-08T00:32:13.015Z,2.95
2023-05-08T00:35:18.720Z,2.40
2023-05-08T00:38:24.312Z,2.58
2023-05-08T00:41:29.804Z,2.00
2023-05-08T00:44:35.807Z,2.38
2023-05-08T00:47:41.555Z,2.38
2023-05-08T00:50:47.304Z,1.92
2023-05-08T00:53:53.320Z,2.42
2023-05-08T00:57:00.137Z,2.70
2023-05-08T01:00:06.138Z,2.65
2023-05-08T01:03:14.326Z,2.00
2023-05-08T01:06:19.847Z,2.05
2023-05-08T01:09:25.817Z,2.10
2023-05-08T01:12:38.630Z,2.25
2023-05-08T01:15:52.174Z,2.20
2023-05-08T01:19:35.534Z,1.98
2023-05-08T01:22:53.253Z,1.83
2023-05-08T01:26:26.002Z,2.30
2023-05-08T01:30:00.346Z,2.10
2023-05-08T01:33:15.344Z,1.58
2023-05-08T01:36:47.693Z,1.88
2023-05-08T01:40:03.505Z,1.80
2023-05-08T01:43:25.755Z,1.40
2023-05-08T01:46:34.068Z,2.20
2023-05-08T01:49:46.778Z,1.20
2023-05-08T01:52:59.550Z,1.90
2023-05-08T01:56:12.232Z,1.58
2023-05-08T01:59:21.669Z,1.40
2023-05-08T02:02:30.700Z,1.90
2023-05-08T02:05:40.830Z,1.90
2023-05-08T02:08:47.968Z,2.33
2023-05-08T02:11:55.206Z,2.22
2023-05-08T02:15:03.501Z,1.77
2023-05-08T02:18:10.375Z,2.22
2023-05-08T02:21:17.960Z,2.30
2023-05-08T02:24:25.110Z,2.40
2023-05-08T02:27:31.781Z,2.42
2023-05-08T02:30:38.904Z,2.22
2023-05-08T02:33:47.204Z,2.95
2023-05-08T02:36:54.932Z,2.40
2023-05-08T02:40:04.378Z,2.50
2023-05-08T02:43:10.581Z,3.38
2023-05-08T02:46:21.551Z,2.60
2023-05-08T02:49:27.333Z,2.90
2023-05-08T02:52:40.908Z,3.60
2023-05-08T02:55:51.262Z,3.67
2023-05-08T02:59:12.964Z,3.55
2023-05-08T03:05:33.333Z,3.75
2023-05-08T03:08:41.081Z,3.78
2023-05-08T03:11:50.344Z,4.15
2023-05-08T03:15:13.068Z,3.58
2023-05-08T03:18:21.943Z,4.60
2023-05-08T03:21:30.948Z,4.15
2023-05-08T03:24:40.566Z,4.72
2023-05-08T03:27:48.589Z,3.90
2023-05-08T03:30:57.540Z,4.40
2023-05-08T03:34:04.961Z,4.43
2023-05-08T03:37:11.036Z,4.80
2023-05-08T03:40:17.257Z,4.90
2023-05-08T03:43:24.129Z,5.10
2023-05-08T03:46:32.206Z,4.53
2023-05-08T03:49:39.518Z,4.57
2023-05-08T03:52:46.122Z,4.32
2023-05-08T03:55:52.178Z,5.40
2023-05-08T03:59:17.386Z,4.45
2023-05-08T04:02:34.841Z,9.63
2023-05-08T04:05:53.919Z,6.95
2023-05-08T04:09:13.729Z,5.45
2023-05-08T04:12:26.848Z,5.35
2023-05-08T04:15:37.224Z,4.85
2023-05-08T04:18:48.129Z,4.60
2023-05-08T04:21:59.475Z,5.07
2023-05-08T04:25:08.278Z,5.10
2023-05-08T04:28:16.230Z,4.65
2023-05-08T04:31:24.917Z,4.65
2023-05-08T04:34:30.801Z,4.95
2023-05-08T04:37:36.713Z,4.82
2023-05-08T04:40:42.417Z,4.32
2023-05-08T04:43:50.923Z,4.32
2023-05-08T04:46:57.082Z,4.35
2023-05-08T04:50:04.831Z,4.43
2023-05-08T04:53:11.922Z,4.88
2023-05-08T04:56:19.557Z,4.60
2023-05-08T04:59:25.446Z,4.95
2023-05-08T05:02:31.378Z,4.38
2023-05-08T05:05:38.804Z,5.18
2023-05-08T05:08:45.935Z,5.13
2023-05-08T05:11:52.121Z,4.70
2023-05-08T05:14:58.078Z,5.07
2023-05-08T05:18:09.081Z,5.40
2023-05-08T05:21:14.815Z,6.65
2023-05-08T05:24:20.610Z,4.88
2023-05-08T05:27:25.931Z,5.00
2023-05-08T05:30:31.211Z,5.22
2023-05-08T05:33:36.546Z,5.10
2023-05-08T05:36:42.438Z,5.32
2023-05-08T05:39:48.429Z,5.38
2023-05-08T05:42:54.731Z,6.07
2023-05-08T05:46:08.018Z,5.60
2023-05-08T05:49:14.132Z,5.97
2023-05-08T05:52:19.589Z,6.57
2023-05-08T05:55:25.708Z,6.30
2023-05-08T05:58:31.603Z,6.20
2023-05-08T06:01:37.513Z,7.18
2023-05-08T06:04:43.135Z,7.55
2023-05-08T06:07:48.990Z,6.68
2023-05-08T06:10:54.566Z,7.85
2023-05-08T06:14:00.065Z,6.93
2023-05-08T06:17:06.120Z,6.47
2023-05-08T06:20:12.320Z,6.40
2023-05-08T06:23:18.269Z,6.35
2023-05-08T06:26:24.488Z,6.55
2023-05-08T06:29:30.374Z,6.07
2023-05-08T06:32:36.996Z,5.45
2023-05-08T06:35:47.782Z,7.20
2023-05-08T06:38:53.537Z,5.75
2023-05-08T06:41:59.333Z,6.15
2023-05-08T06:45:10.289Z,7.28
2023-05-08T06:48:15.677Z,6.25
2023-05-08T06:51:23.377Z,7.72
2023-05-08T06:54:29.371Z,6.22
2023-05-08T06:57:35.380Z,7.32
2023-05-08T07:00:42.356Z,6.50
2023-05-08T07:03:48.608Z,5.82
2023-05-08T07:06:54.169Z,6.63
2023-05-08T07:09:59.461Z,6.43
2023-05-08T07:13:04.780Z,6.88
2023-05-08T07:16:11.279Z,6.65
2023-05-08T07:19:16.651Z,7.22
2023-05-08T07:22:22.260Z,7.28
2023-05-08T07:25:27.847Z,6.75
2023-05-08T07:28:33.322Z,6.57
2023-05-08T07:31:41.781Z,5.70
2023-05-08T07:34:47.189Z,6.18
2023-05-08T07:37:53.036Z,6.43
2023-05-08T07:41:00.079Z,6.22
2023-05-08T07:44:05.517Z,6.60
2023-05-08T07:47:10.722Z,6.32
2023-05-08T07:50:16.008Z,6.30
2023-05-08T07:53:21.457Z,5.13
2023-05-08T07:56:28.794Z,5.93
2023-05-08T07:59:34.485Z,5.18
2023-05-08T08:02:40.338Z,5.40
2023-05-08T08:05:46.215Z,5.15
2023-05-08T08:08:52.687Z,5.10
2023-05-08T08:11:58.581Z,7.05
2023-05-08T08:15:04.079Z,6.75
2023-05-08T08:18:09.931Z,6.05
2023-05-08T08:21:15.969Z,5.82
2023-05-08T08:24:21.474Z,5.93
2023-05-08T08:27:27.047Z,5.75
2023-05-08T08:30:32.856Z,6.30
2023-05-08T08:33:38.723Z,6.85
2023-05-08T08:36:44.030Z,6.70
2023-05-08T08:39:49.603Z,7.20
2023-05-08T08:42:55.739Z,7.43
2023-05-08T08:46:13.635Z,7.18
2023-05-08T08:49:26.088Z,6.85
2023-05-08T08:52:32.726Z,7.07
2023-05-08T08:55:44.193Z,8.07
2023-05-08T08:58:57.385Z,8.43
2023-05-08T09:02:17.894Z,7.65
2023-05-08T09:05:24.509Z,8.02
2023-05-08T09:08:30.230Z,8.10
2023-05-08T09:11:37.884Z,7.45
2023-05-08T09:14:43.498Z,8.05
2023-05-08T09:17:49.309Z,8.07
2023-05-08T09:20:55.122Z,8.40
2023-05-08T09:24:02.953Z,9.02
2023-05-08T09:27:22.694Z,8.45
2023-05-08T09:30:28.436Z,7.60
2023-05-08T09:33:44.194Z,7.82
2023-05-08T09:36:50.456Z,7.45
2023-05-08T09:40:17.679Z,7.65
2023-05-08T09:43:23.448Z,8.35
2023-05-08T09:46:29.628Z,8.02
2023-05-08T09:49:35.052Z,9.05
2023-05-08T09:52:47.707Z,8.38
2023-05-08T09:55:53.708Z,8.48
2023-05-08T09:58:59.592Z,8.98
2023-05-08T10:02:12.552Z,8.60
2023-05-08T10:05:30.275Z,10.52
2023-05-08T10:08:35.839Z,7.82
2023-05-08T10:11:52.218Z,7.95
2023-05-08T10:14:58.122Z,8.10
2023-05-08T10:18:06.331Z,7.93
2023-05-08T10:21:13.707Z,8.65
2023-05-08T10:24:26.856Z,6.80
2023-05-08T10:27:38.789Z,7.97
2023-05-08T10:30:49.437Z,7.45
2023-05-08T10:34:02.523Z,7.90
2023-05-08T10:37:11.594Z,8.60
2023-05-08T10:40:18.979Z,7.97
2023-05-08T10:43:29.897Z,8.82
2023-05-08T10:46:42.805Z,9.13
2023-05-08T10:50:20.892Z,9.80
2023-05-08T10:53:35.121Z,9.93
2023-05-08T10:56:41.073Z,9.70
2023-05-08T10:59:47.583Z,9.63
2023-05-08T11:03:07.183Z,9.50
2023-05-08T11:06:19.336Z,10.57
2023-05-08T11:09:31.224Z,9.85
2023-05-08T11:12:38.356Z,9.63
2023-05-08T11:15:50.880Z,9.13
2023-05-08T11:19:19.296Z,9.23
2023-05-08T11:22:33.278Z,9.98
2023-05-08T11:25:43.975Z,9.75
2023-05-08T11:28:57.385Z,10.13
2023-05-08T11:32:03.317Z,9.07
2023-05-08T11:35:13.907Z,7.60
2023-05-08T11:38:28.381Z,7.47
2023-05-08T11:41:34.310Z,8.13
2023-05-08T11:44:39.911Z,6.30
2023-05-08T11:47:46.542Z,6.45
2023-05-08T11:50:53.236Z,7.00
2023-05-08T11:54:00.253Z,6.85
2023-05-08T11:57:06.028Z,7.30
2023-05-08T12:00:13.104Z,8.52
2023-05-08T12:03:22.450Z,8.50
2023-05-08T12:06:29.342Z,8.50
2023-05-08T12:09:37.302Z,9.93
2023-05-08T12:12:44.162Z,8.05
2023-05-08T12:15:56.286Z,7.88
2023-05-08T12:19:02.330Z,7.88
2023-05-08T12:22:09.309Z,8.63
2023-05-08T12:25:14.728Z,8.23
2023-05-08T12:28:20.761Z,8.50
2023-05-08T12:31:27.247Z,8.35
2023-05-08T12:34:32.858Z,8.35
2023-05-08T12:37:39.057Z,8.55
2023-05-08T12:40:46.859Z,7.80
2023-05-08T12:43:52.511Z,9.07
2023-05-08T12:46:58.736Z,8.13
2023-05-08T12:50:04.690Z,8.43
2023-05-08T12:53:18.552Z,9.50
2023-05-08T12:56:24.099Z,7.80
2023-05-08T12:59:33.395Z,8.68
2023-05-08T13:02:47.435Z,7.07
2023-05-08T13:05:56.909Z,6.68
2023-05-08T13:09:02.290Z,6.55
2023-05-08T13:12:07.812Z,7.03
2023-05-08T13:15:14.177Z,6.80
2023-05-08T13:18:21.866Z,5.97
2023-05-08T13:21:28.245Z,5.45
2023-05-08T13:24:34.263Z,6.00
2023-05-08T13:27:39.980Z,6.28
2023-05-08T13:30:45.299Z,5.85
2023-05-08T13:33:51.144Z,6.40
2023-05-08T13:36:56.466Z,6.28
2023-05-08T13:40:02.143Z,5.75
2023-05-08T13:43:07.858Z,6.35
2023-05-08T13:46:13.541Z,5.07
2023-05-08T13:49:20.058Z,4.50
2023-05-08T13:52:26.170Z,4.28
2023-05-08T13:55:32.276Z,5.15
2023-05-08T13:58:37.764Z,4.40
2023-05-08T14:01:43.850Z,5.00
2023-05-08T14:04:49.926Z,4.28
2023-05-08T14:07:55.267Z,3.97
2023-05-08T14:11:00.438Z,4.88
2023-05-08T14:14:05.925Z,4.55
2023-05-08T14:17:11.577Z,4.38
2023-05-08T14:20:16.788Z,3.10
2023-05-08T14:23:22.243Z,3.45
2023-05-08T14:26:27.822Z,3.83
2023-05-08T14:29:34.281Z,3.88
2023-05-08T14:32:39.736Z,4.35
2023-05-08T14:35:46.685Z,4.50
2023-05-08T14:38:51.975Z,4.22
2023-05-08T14:42:18.307Z,5.10
2023-05-08T14:45:23.367Z,5.53
2023-05-08T14:48:28.742Z,4.40
2023-05-08T14:51:34.447Z,5.00
2023-05-08T14:54:40.305Z,4.28
2023-05-08T14:57:50.132Z,4.60
2023-05-08T15:00:56.047Z,4.43
2023-05-08T15:04:01.956Z,4.93
2023-05-08T15:07:07.728Z,4.95
2023-05-08T15:10:13.125Z,5.15
2023-05-08T15:13:18.691Z,5.40
2023-05-08T15:16:24.235Z,4.75
2023-05-08T15:19:29.950Z,4.65
2023-05-08T15:22:35.444Z,4.35
2023-05-08T15:25:41.029Z,4.13
2023-05-08T15:28:46.558Z,4.15
2023-05-08T15:31:52.850Z,3.80
2023-05-08T15:34:58.576Z,4.47
2023-05-08T15:38:06.887Z,4.32
2023-05-08T15:41:15.170Z,4.40
2023-05-08T15:44:20.941Z,4.03
2023-05-08T15:47:30.009Z,4.10
2023-05-08T15:50:35.375Z,3.95
2023-05-08T15:53:41.002Z,3.60
2023-05-08T15:56:46.532Z,3.38
2023-05-08T15:59:52.028Z,4.35
2023-05-08T16:02:57.672Z,3.58
2023-05-08T16:06:02.902Z,3.60
2023-05-08T16:09:09.339Z,3.90
2023-05-08T16:12:15.033Z,3.47
2023-05-08T16:15:20.770Z,3.88
2023-05-08T16:18:26.343Z,4.45
2023-05-08T16:21:32.072Z,5.45
2023-05-08T16:24:37.827Z,5.10
2023-05-08T16:27:43.589Z,5.90
2023-05-08T16:30:49.060Z,6.13
2023-05-08T16:33:54.450Z,5.60
2023-05-08T16:37:00.259Z,6.30
2023-05-08T16:40:08.231Z,6.32
2023-05-08T16:43:13.858Z,6.65
2023-05-08T16:46:29.185Z,7.20
2023-05-08T16:49:36.814Z,7.25
2023-05-08T16:52:42.402Z,8.55
2023-05-08T16:55:48.093Z,7.47
2023-05-08T16:58:53.760Z,7.35
2023-05-08T17:01:59.505Z,7.97
2023-05-08T17:05:05.672Z,7.88
2023-05-08T17:08:12.079Z,9.85
2023-05-08T17:11:17.545Z,8.15
2023-05-08T17:14:23.162Z,7.22
2023-05-08T17:17:28.789Z,6.90
2023-05-08T17:20:41.235Z,6.47
2023-05-08T17:23:47.098Z,8.13
2023-05-08T17:26:52.305Z,8.15
2023-05-08T17:29:57.757Z,7.30
2023-05-08T17:33:03.998Z,7.88
2023-05-08T17:36:10.139Z,7.57
2023-05-08T17:39:15.972Z,8.23
2023-05-08T17:42:21.355Z,7.72
2023-05-08T17:45:27.739Z,7.63
2023-05-08T17:48:34.464Z,7.18
2023-05-08T17:51:41.649Z,7.57
2023-05-08T17:54:47.415Z,6.45
2023-05-08T17:57:53.808Z,6.72
2023-05-08T18:00:59.901Z,7.25
2023-05-08T18:04:05.864Z,8.02
2023-05-08T18:07:11.657Z,6.95
2023-05-08T18:10:17.155Z,7.88
2023-05-08T18:13:22.913Z,6.38
2023-05-08T18:16:28.797Z,7.20
2023-05-08T18:19:34.457Z,7.90
2023-05-08T18:22:39.904Z,8.23
2023-05-08T18:25:45.558Z,9.23
2023-05-08T18:28:51.287Z,8.35
2023-05-08T18:31:57.007Z,7.82
2023-05-08T18:35:02.837Z,7.38
2023-05-08T18:38:08.410Z,7.47
2023-05-08T18:41:14.575Z,7.50
2023-05-08T18:44:20.767Z,7.10
2023-05-08T18:47:26.314Z,6.75
2023-05-08T18:50:32.122Z,7.13
2023-05-08T18:53:39.060Z,7.40
2023-05-08T18:56:44.344Z,7.40
2023-05-08T18:59:49.950Z,7.97
2023-05-08T19:03:01.457Z,7.28
2023-05-08T19:06:11.695Z,7.88
2023-05-08T19:09:19.992Z,8.30
2023-05-08T19:12:26.341Z,8.10
2023-05-08T19:15:32.539Z,7.45
2023-05-08T19:18:38.102Z,7.78
2023-05-08T19:21:43.391Z,8.25
2023-05-08T19:24:48.782Z,8.77
2023-05-08T19:27:53.820Z,8.77
2023-05-08T19:30:59.472Z,9.05
2023-05-08T19:34:05.361Z,9.65
2023-05-08T19:37:11.518Z,9.55
2023-05-08T19:40:17.774Z,8.88
2023-05-08T19:43:24.070Z,9.05
2023-05-08T19:46:30.893Z,9.32
2023-05-08T19:49:39.080Z,9.43
2023-05-08T19:52:50.832Z,9.90
2023-05-08T19:56:00.126Z,8.90
2023-05-08T19:59:07.538Z,8.65
2023-05-08T20:02:18.051Z,9.05
2023-05-08T20:05:25.427Z,8.68
2023-05-08T20:08:34.593Z,8.13
2023-05-08T20:11:41.486Z,9.10
2023-05-08T20:14:47.483Z,8.10
2023-05-08T20:17:56.006Z,8.23
2023-05-08T20:21:03.244Z,7.57
2023-05-08T20:24:09.375Z,8.98
2023-05-08T20:27:16.965Z,8.10
2023-05-08T20:30:24.674Z,7.88
2023-05-08T20:33:30.897Z,8.73
2023-05-08T20:36:36.792Z,8.82
2023-05-08T20:39:43.746Z,9.20
2023-05-08T20:42:49.307Z,9.30
2023-05-08T20:45:55.407Z,9.02
2023-05-08T20:49:02.768Z,9.30
2023-05-08T20:52:08.770Z,9.32
2023-05-08T20:55:15.127Z,9.95
2023-05-08T20:58:21.567Z,8.52
2023-05-08T21:01:27.806Z,10.75
2023-05-08T21:04:33.551Z,10.35
2023-05-08T21:07:39.558Z,8.43
2023-05-08T21:10:45.233Z,9.23
2023-05-08T21:13:51.181Z,9.77
2023-05-08T21:16:57.877Z,9.57
2023-05-08T21:20:03.478Z,9.52
2023-05-08T21:23:09.066Z,10.05
2023-05-08T21:26:14.861Z,10.27
2023-05-08T21:29:20.448Z,10.40
2023-05-08T21:32:26.476Z,10.30
2023-05-08T21:35:32.105Z,11.00
2023-05-08T21:38:37.615Z,10.48
2023-05-08T21:41:44.103Z,10.55
2023-05-08T21:44:49.607Z,11.27
2023-05-08T21:47:55.236Z,11.10
2023-05-08T21:51:01.664Z,12.07
2023-05-08T21:54:07.788Z,12.13
2023-05-08T21:57:13.436Z,13.30
2023-05-08T22:00:22.190Z,13.15
2023-05-08T22:03:28.317Z,14.80
2023-05-08T22:06:34.107Z,13.20
2023-05-08T22:09:39.422Z,14.18
2023-05-08T22:12:44.969Z,13.93
2023-05-08T22:15:50.663Z,14.15
2023-05-08T22:18:56.247Z,13.52
2023-05-08T22:22:01.947Z,13.35
2023-05-08T22:25:08.988Z,13.60
2023-05-08T22:28:15.008Z,15.93
2023-05-08T22:31:21.385Z,13.63
2023-05-08T22:34:27.127Z,14.70
2023-05-08T22:37:33.232Z,14.63
2023-05-08T22:40:39.159Z,14.88
2023-05-08T22:43:45.118Z,14.50
2023-05-08T22:46:50.899Z,13.98
2023-05-08T22:49:56.742Z,13.95
2023-05-08T22:53:08.185Z,14.63
2023-05-08T22:59:19.357Z,13.68
2023-05-08T23:02:25.040Z,12.77
2023-05-08T23:05:30.854Z,13.13
2023-05-08T23:08:37.222Z,13.35
2023-05-08T23:11:43.196Z,12.93
2023-05-08T23:14:49.035Z,12.50
2023-05-08T23:17:54.954Z,12.20
2023-05-08T23:21:09.268Z,12.35
2023-05-08T23:24:15.143Z,13.43
2023-05-08T23:27:21.601Z,12.68
2023-05-08T23:30:27.306Z,12.02
2023-05-08T23:33:32.869Z,12.02
2023-05-08T23:36:38.164Z,10.50
2023-05-08T23:39:43.852Z,10.20
2023-05-08T23:42:49.473Z,9.27
2023-05-08T23:45:55.664Z,8.98
2023-05-08T23:49:01.500Z,7.88
2023-05-08T23:52:07.335Z,7.28
2023-05-08T23:55:13.551Z,6.78
2023-05-08T23:58:20.293Z,5.60
